Time;durP1;ratioP1;P1;durP2;ratioP2;P2;SDS_P1;SDS_P2;PMS_P1;PMS_P2;Temp;Humidity;BMP_temperature;BMP_pressure;BME280_temperature;BME280_humidity;BME280_pressure;Samples;Min_cycle;Max_cycle;Signal;HPM_P1;HPM_P2
2023/01/13 00:03:03;;;;;;;8.50;4.65;;;;;;;-3.22;95.44;99987.75;10436632;28;20042;-79
2023/01/13 00:08:05;;;;;;;5.95;4.18;;;;;;;-3.23;95.75;99962.78;10450268;28;20045;-78
2023/01/13 00:13:11;;;;;;;5.97;4.18;;;;;;;-3.22;95.64;99963.59;10429765;28;20052;-86
2023/01/13 00:18:14;;;;;;;8.40;5.43;;;;;;;-3.18;95.53;99973.72;10451979;28;20041;-76
2023/01/13 00:23:16;;;;;;;7.60;4.57;;;;;;;-3.18;95.79;99957.63;10448591;28;20072;-76
2023/01/13 00:28:19;;;;;;;6.47;4.35;;;;;;;-3.18;95.44;99952.25;10445840;28;20496;-76
2023/01/13 00:33:25;;;;;;;4.03;2.40;;;;;;;-3.22;95.42;99937.59;10428991;28;20044;-78
2023/01/13 00:38:33;;;;;;;8.43;4.80;;;;;;;-3.22;96.14;99944.81;10433249;28;20041;-76
2023/01/13 00:43:36;;;;;;;6.68;4.03;;;;;;;-3.25;96.16;99923.78;10447234;28;20042;-78
2023/01/13 00:48:42;;;;;;;6.53;4.32;;;;;;;-3.23;96.66;99924.41;10442891;28;20041;-78
2023/01/13 00:53:47;;;;;;;5.63;3.65;;;;;;;-3.23;96.32;99911.00;10461256;28;20041;-77
2023/01/13 00:58:50;;;;;;;5.47;3.63;;;;;;;-3.24;96.79;99903.97;10430067;28;20053;-77
2023/01/13 01:03:53;;;;;;;6.88;3.90;;;;;;;-3.21;97.04;99898.19;10447583;28;20033;-78
2023/01/13 01:08:56;;;;;;;5.80;3.70;;;;;;;-3.23;96.94;99895.72;10420773;28;20412;-77
2023/01/13 01:14:00;;;;;;;6.35;4.13;;;;;;;-3.23;96.68;99879.63;10430054;28;20159;-78
2023/01/13 01:19:03;;;;;;;7.28;4.43;;;;;;;-3.21;96.71;99860.63;10446335;28;20419;-78
2023/01/13 01:24:06;;;;;;;5.25;3.67;;;;;;;-3.23;96.95;99854.66;10443418;28;20412;-78
2023/01/13 01:29:12;;;;;;;7.10;4.00;;;;;;;-3.22;97.05;99848.25;10468606;28;20447;-78
2023/01/13 01:34:14;;;;;;;5.80;3.63;;;;;;;-3.24;97.09;99837.72;10445007;28;20065;-79
2023/01/13 01:39:16;;;;;;;5.40;3.10;;;;;;;-3.21;97.48;99828.44;10446745;28;20041;-78
2023/01/13 01:44:40;;;;;;;5.53;3.63;;;;;;;-3.21;97.86;99815.00;10454930;28;20045;-78
2023/01/13 01:49:43;;;;;;;3.15;2.65;;;;;;;-3.25;98.15;99792.34;10444967;28;20133;-78
2023/01/13 01:55:04;;;;;;;5.07;3.17;;;;;;;-3.27;98.57;99770.25;10428031;28;20037;-78
2023/01/13 02:00:07;;;;;;;5.90;3.50;;;;;;;-3.27;99.03;99768.41;10445236;28;20042;-79
2023/01/13 02:05:15;;;;;;;4.25;2.88;;;;;;;-3.26;99.24;99771.91;10419257;28;20041;-79
2023/01/13 02:10:22;;;;;;;5.75;3.38;;;;;;;-3.26;99.03;99763.84;10428096;28;20054;-79
2023/01/13 02:15:31;;;;;;;5.03;3.08;;;;;;;-3.25;99.28;99747.53;10411045;28;20052;-79
2023/01/13 02:20:47;;;;;;;5.50;2.97;;;;;;;-3.23;99.55;99733.91;10446397;28;20044;-79
2023/01/13 02:25:59;;;;;;;4.75;3.00;;;;;;;-3.23;99.50;99723.19;10444210;28;20049;-79
2023/01/13 02:36:49;;;;;;;5.97;3.17;;;;;;;-3.14;99.24;99713.84;10433356;28;20416;-79
2023/01/13 02:47:24;;;;;;;4.55;2.83;;;;;;;-2.98;98.73;99683.81;10409842;28;20057;-79
2023/01/13 02:52:39;;;;;;;2.88;2.00;;;;;;;-2.90;98.71;99686.25;10428249;28;20034;-78
2023/01/13 02:57:42;;;;;;;4.90;3.20;;;;;;;-2.88;98.07;99665.38;10441465;28;20053;-79
2023/01/13 03:02:47;;;;;;;3.38;2.13;;;;;;;-2.90;98.00;99654.03;10425064;28;20061;-80
2023/01/13 03:08:22;;;;;;;4.32;1.73;;;;;;;-2.83;97.42;99660.16;10430786;28;20049;-80
2023/01/13 03:13:42;;;;;;;3.75;2.85;;;;;;;-2.79;97.70;99655.19;10439509;28;20048;-80
2023/01/13 03:18:51;;;;;;;4.57;2.63;;;;;;;-2.74;98.08;99650.81;10457091;28;20049;-80
2023/01/13 03:24:01;;;;;;;3.35;1.90;;;;;;;-2.70;98.41;99626.22;10457721;28;20064;-79
2023/01/13 03:29:04;;;;;;;4.10;2.88;;;;;;;-2.68;98.03;99629.50;10440104;28;20045;-79
2023/01/13 03:34:15;;;;;;;3.85;2.50;;;;;;;-2.65;98.13;99615.63;10453983;28;20052;-79
2023/01/13 03:39:24;;;;;;;3.72;2.70;;;;;;;-2.66;99.43;99612.13;10438995;28;20041;-79
2023/01/13 03:44:32;;;;;;;5.18;3.45;;;;;;;-2.70;99.96;99604.72;10437894;28;20057;-78
2023/01/13 03:49:43;;;;;;;3.08;2.30;;;;;;;-2.68;99.94;99592.72;10452865;28;20079;-77
2023/01/13 03:55:19;;;;;;;1.70;1.50;;;;;;;-2.65;100.00;99586.09;10430797;28;20045;-77
2023/01/13 04:00:26;;;;;;;4.47;2.38;;;;;;;-2.64;100.00;99610.03;10446969;28;20064;-77
2023/01/13 04:05:29;;;;;;;4.53;2.97;;;;;;;-2.57;100.00;99585.81;10432684;28;20412;-77
2023/01/13 04:10:37;;;;;;;3.00;1.48;;;;;;;-2.50;100.00;99573.13;10434834;28;20038;-78
2023/01/13 04:15:44;;;;;;;2.70;2.10;;;;;;;-2.40;100.00;99572.63;10462439;28;20495;-76
2023/01/13 04:20:48;;;;;;;7.53;2.65;;;;;;;-2.34;100.00;99580.59;10427185;28;20052;-76
2023/01/13 04:25:51;;;;;;;4.97;2.00;;;;;;;-2.30;100.00;99562.16;10441187;28;20041;-77
2023/01/13 04:30:53;;;;;;;5.97;2.13;;;;;;;-2.26;100.00;99548.06;10442815;28;20044;-77
2023/01/13 04:35:55;;;;;;;3.55;1.52;;;;;;;-2.21;100.00;99558.97;10449373;28;20050;-79
2023/01/13 04:40:58;;;;;;;2.28;1.92;;;;;;;-2.15;100.00;99587.63;10433936;28;20057;-77
2023/01/13 04:46:00;;;;;;;1.70;1.08;;;;;;;-2.08;100.00;99578.66;10407181;28;20169;-77
2023/01/13 04:51:03;;;;;;;3.80;1.98;;;;;;;-1.98;100.00;99534.09;10407012;28;20046;-78
2023/01/13 04:56:05;;;;;;;5.40;2.30;;;;;;;-1.85;100.00;99543.84;10401101;28;20050;-78
2023/01/13 05:01:08;;;;;;;4.18;1.65;;;;;;;-1.75;100.00;99554.88;10391834;28;20042;-79
2023/01/13 05:06:16;;;;;;;4.97;2.30;;;;;;;-1.65;100.00;99535.50;10399871;28;20050;-79
2023/01/13 05:27:22;;;;;;;1.63;1.52;;;;;;;-1.27;98.80;99572.81;10405991;28;20232;-78
2023/01/13 05:32:26;;;;;;;2.42;1.75;;;;;;;-1.25;99.13;99566.16;10406088;28;20041;-78
2023/01/13 05:37:29;;;;;;;2.90;1.80;;;;;;;-1.24;99.10;99550.81;10405731;28;20073;-78
2023/01/13 05:47:52;;;;;;;1.23;1.05;;;;;;;-1.17;99.12;99561.50;10403171;28;20524;-78
2023/01/13 05:52:54;;;;;;;3.67;1.75;;;;;;;-1.11;98.74;99572.16;10445403;28;20136;-77
2023/01/13 05:57:56;;;;;;;3.05;1.63;;;;;;;-1.04;98.81;99572.88;10446105;28;20526;-78
2023/01/13 06:02:58;;;;;;;4.40;2.03;;;;;;;-0.97;98.64;99578.97;10443950;28;20408;-78
2023/01/13 06:08:02;;;;;;;1.25;0.98;;;;;;;-0.89;98.08;99569.72;10445603;28;20045;-78
2023/01/13 06:13:05;;;;;;;2.92;1.60;;;;;;;-0.80;98.29;99578.28;10428548;28;20045;-77
2023/01/13 06:18:07;;;;;;;2.28;1.70;;;;;;;-0.72;98.28;99580.63;10443123;28;20041;-78
2023/01/13 06:23:10;;;;;;;3.10;2.20;;;;;;;-0.64;97.46;99589.19;10445650;28;20045;-77
2023/01/13 06:28:13;;;;;;;2.25;1.38;;;;;;;-0.59;97.46;99575.00;10442633;28;20104;-77
2023/01/13 06:33:19;;;;;;;3.05;1.00;;;;;;;-0.58;97.25;99598.22;10444866;28;20033;-78
2023/01/13 06:38:23;;;;;;;1.33;1.20;;;;;;;-0.54;97.56;99580.50;10426612;28;20492;-78
2023/01/13 06:43:25;;;;;;;4.13;2.70;;;;;;;-0.52;97.56;99605.38;10443590;28;20068;-78
2023/01/13 06:48:31;;;;;;;2.30;1.42;;;;;;;-0.50;97.92;99589.78;10444110;28;20041;-78
2023/01/13 06:53:34;;;;;;;2.35;1.55;;;;;;;-0.46;98.38;99609.00;10444228;28;20037;-77
2023/01/13 06:58:36;;;;;;;6.22;2.35;;;;;;;-0.44;98.40;99607.69;10410203;28;20459;-77
2023/01/13 07:03:39;;;;;;;2.45;1.60;;;;;;;-0.40;98.05;99605.34;10444322;28;20136;-78
2023/01/13 07:08:41;;;;;;;4.72;2.15;;;;;;;-0.39;98.35;99613.19;10442228;28;20049;-78
2023/01/13 07:19:05;;;;;;;3.63;2.63;;;;;;;-0.36;98.54;99633.47;10403645;28;20044;-78
2023/01/13 07:24:11;;;;;;;6.95;3.53;;;;;;;-0.34;99.30;99640.28;10443544;28;20056;-77
2023/01/13 07:29:13;;;;;;;4.85;2.75;;;;;;;-0.32;99.29;99646.25;10425990;28;20057;-79
2023/01/13 07:34:16;;;;;;;4.03;1.92;;;;;;;-0.29;99.59;99655.75;10444209;28;20041;-78
2023/01/13 07:39:22;;;;;;;2.47;1.63;;;;;;;-0.25;99.76;99669.56;10441390;28;20411;-78
2023/01/13 07:44:24;;;;;;;3.72;2.05;;;;;;;-0.24;100.00;99668.53;10442724;28;20052;-78
2023/01/13 07:49:26;;;;;;;1.92;1.27;;;;;;;-0.20;100.00;99677.78;10426732;28;20056;-78
2023/01/13 07:54:28;;;;;;;6.30;2.83;;;;;;;-0.17;100.00;99686.22;10445758;28;20041;-79
2023/01/13 07:59:31;;;;;;;1.98;1.67;;;;;;;-0.12;99.79;99704.41;10449560;28;20042;-78
2023/01/13 08:04:33;;;;;;;4.40;2.42;;;;;;;-0.09;100.00;99712.84;10447654;28;20124;-79
2023/01/13 08:09:35;;;;;;;3.90;1.73;;;;;;;-0.04;100.00;99731.81;10451123;28;20055;-78
2023/01/13 08:14:37;;;;;;;3.83;1.77;;;;;;;0.01;100.00;99724.94;10450933;28;20495;-78
2023/01/13 08:19:40;;;;;;;5.82;2.22;;;;;;;0.05;100.00;99743.09;10449055;28;20694;-78
2023/01/13 08:24:42;;;;;;;3.28;2.35;;;;;;;0.10;100.00;99747.78;10446224;28;20038;-78
2023/01/13 08:29:44;;;;;;;3.15;1.90;;;;;;;0.13;100.00;99748.13;10431766;28;20045;-77
2023/01/13 08:34:47;;;;;;;5.07;1.95;;;;;;;0.20;100.00;99762.34;10449677;28;20044;-78
2023/01/13 08:39:49;;;;;;;3.55;2.05;;;;;;;0.21;100.00;99763.97;10449345;28;20428;-78
2023/01/13 08:44:55;;;;;;;3.30;2.13;;;;;;;0.24;100.00;99779.69;10448277;28;20042;-78
2023/01/13 08:49:58;;;;;;;2.00;1.80;;;;;;;0.27;100.00;99784.59;10426638;28;20052;-79
2023/01/13 08:55:04;;;;;;;2.28;1.55;;;;;;;0.32;100.00;99791.16;10449566;28;20038;-78
2023/01/13 09:00:10;;;;;;;2.38;1.38;;;;;;;0.40;100.00;99796.22;10446366;28;20423;-78
2023/01/13 09:05:12;;;;;;;0.98;0.77;;;;;;;0.45;100.00;99801.72;10428853;28;20511;-77
2023/01/13 09:10:14;;;;;;;9.52;1.95;;;;;;;0.50;100.00;99809.94;10463258;28;20037;-78
2023/01/13 09:15:17;;;;;;;2.28;1.00;;;;;;;0.54;100.00;99811.13;10446228;28;20053;-77
2023/01/13 09:20:20;;;;;;;2.28;1.48;;;;;;;0.58;100.00;99823.91;10440444;28;20049;-77
2023/01/13 09:25:22;;;;;;;2.17;1.20;;;;;;;0.63;100.00;99831.28;10439177;28;20044;-79
2023/01/13 09:30:24;;;;;;;2.28;1.45;;;;;;;0.66;100.00;99836.22;10444360;28;20424;-78
2023/01/13 09:35:27;;;;;;;2.15;1.55;;;;;;;0.73;100.00;99853.13;10439565;28;20041;-78
2023/01/13 09:40:29;;;;;;;2.28;1.40;;;;;;;0.81;100.00;99841.97;10425739;28;20052;-78
2023/01/13 09:45:40;;;;;;;1.42;1.23;;;;;;;0.85;100.00;99845.81;10443278;28;20026;-80
2023/01/13 09:51:01;;;;;;;2.17;1.35;;;;;;;0.94;100.00;99858.97;10426062;28;20435;-76
2023/01/13 09:56:09;;;;;;;2.33;1.27;;;;;;;0.97;100.00;99853.09;10446940;28;20057;-78
2023/01/13 10:01:41;;;;;;;1.13;0.88;;;;;;;0.99;100.00;99864.47;10429117;28;20050;-77
2023/01/13 10:06:47;;;;;;;1.77;1.38;;;;;;;1.01;100.00;99871.28;10427501;28;20129;-77
2023/01/13 10:17:43;;;;;;;1.92;1.13;;;;;;;1.04;100.00;99880.78;10442074;28;20049;-79
2023/01/13 10:23:22;;;;;;;1.70;1.35;;;;;;;1.06;100.00;99886.81;10430508;28;20041;-78
2023/01/13 10:28:28;;;;;;;2.83;0.93;;;;;;;1.06;100.00;99911.94;10434868;28;20488;-77
2023/01/13 10:33:34;;;;;;;2.63;1.60;;;;;;;1.07;100.00;99918.97;10436529;28;20056;-79
2023/01/13 10:38:48;;;;;;;2.10;1.27;;;;;;;1.05;100.00;99914.88;10426806;28;20503;-81
2023/01/13 10:43:51;;;;;;;1.67;1.38;;;;;;;1.06;100.00;99927.34;10415945;28;20038;-79
2023/01/13 10:49:03;;;;;;;2.95;1.40;;;;;;;1.05;100.00;99931.09;10447626;28;20053;-78
2023/01/13 10:54:11;;;;;;;1.10;1.00;;;;;;;1.02;100.00;99931.53;10433050;28;20045;-79
2023/01/13 10:59:21;;;;;;;;;;;;;;;1.01;100.00;99935.28;10421442;28;20052;-77
2023/01/13 11:04:29;;;;;;;2.85;0.98;;;;;;;1.00;100.00;99939.88;10436714;28;19928;-77
2023/01/13 11:09:31;;;;;;;;;;;;;;;0.99;100.00;99956.31;10436284;28;20045;-76
2023/01/13 11:14:40;;;;;;;2.22;1.30;;;;;;;1.03;100.00;99957.50;10436944;28;19925;-75
2023/01/13 11:19:49;;;;;;;1.13;0.88;;;;;;;1.02;100.00;99959.38;10440420;28;20054;-75
2023/01/13 11:24:53;;;;;;;0.60;0.60;;;;;;;1.02;100.00;99966.66;10440674;28;20041;-74
2023/01/13 11:30:17;;;;;;;1.25;1.02;;;;;;;1.00;100.00;99968.78;10435421;28;20041;-73
2023/01/13 11:35:20;;;;;;;2.45;1.48;;;;;;;0.99;100.00;99981.47;10431477;28;20041;-71
2023/01/13 11:40:48;;;;;;;;;;;;;;;1.00;100.00;99987.69;10431804;28;20041;-70
2023/01/13 11:45:55;;;;;;;1.67;1.13;;;;;;;0.99;100.00;99989.56;10447622;28;19928;-71
2023/01/13 11:51:03;;;;;;;1.90;1.55;;;;;;;0.99;100.00;99996.84;10425531;28;20038;-73
2023/01/13 11:56:26;;;;;;;2.10;1.52;;;;;;;0.99;100.00;99999.53;10446913;28;20414;-74
2023/01/13 12:01:47;;;;;;;3.30;1.98;;;;;;;0.99;100.00;100004.94;10413810;28;20042;-74
2023/01/13 12:07:19;;;;;;;2.50;1.63;;;;;;;1.03;100.00;100008.81;10445127;28;20053;-72
2023/01/13 12:12:22;;;;;;;1.50;1.40;;;;;;;1.04;100.00;100005.91;10447942;28;20076;-72
2023/01/13 12:18:07;;;;;;;1.33;1.20;;;;;;;1.04;100.00;100005.91;10422811;28;20128;-69
2023/01/13 12:23:50;;;;;;;2.60;1.70;;;;;;;1.08;100.00;100014.38;10435159;28;20048;-75
2023/01/13 12:29:19;;;;;;;2.45;2.05;;;;;;;1.09;100.00;100029.53;10430798;28;20143;-73
2023/01/13 12:34:38;;;;;;;4.50;1.95;;;;;;;1.13;100.00;100033.41;10423915;28;20080;-73
2023/01/13 12:40:02;;;;;;;2.13;1.48;;;;;;;1.14;100.00;100040.44;10428239;28;20048;-73
2023/01/13 12:45:33;;;;;;;2.95;2.08;;;;;;;1.14;100.00;100037.75;10440754;28;20665;-77
2023/01/13 12:50:39;;;;;;;5.18;2.33;;;;;;;1.14;100.00;100049.38;10430809;28;20443;-75
2023/01/13 12:55:41;;;;;;;3.05;2.03;;;;;;;1.14;100.00;100043.97;10438468;28;20060;-75
2023/01/13 13:00:44;;;;;;;6.25;3.50;;;;;;;1.13;100.00;100061.22;10441350;28;20053;-78
2023/01/13 13:06:07;;;;;;;7.03;3.17;;;;;;;1.12;100.00;100056.06;10442544;28;20042;-78
2023/01/13 13:13:16;;;;;;;9.23;3.13;;;;;;;1.10;100.00;100064.41;10447022;28;20054;-77
2023/01/13 13:16:35;;;;;;;3.78;1.85;;;;;;;1.08;100.00;100060.31;10445988;28;20045;-76
2023/01/13 13:22:12;;;;;;;2.60;1.43;;;;;;;1.05;100.00;100053.47;10442416;28;20052;-77
2023/01/13 13:27:26;;;;;;;4.03;2.63;;;;;;;1.05;100.00;100055.38;10423435;28;20424;-76
2023/01/13 13:32:39;;;;;;;4.85;2.83;;;;;;;1.04;100.00;100064.50;10449889;28;20037;-73
2023/01/13 13:48:57;;;;;;;6.60;3.33;;;;;;;1.07;100.00;100072.16;10419057;28;20040;-77
2023/01/13 13:54:01;;;;;;;11.43;3.72;;;;;;;1.07;100.00;100070.28;10411409;28;20057;-76
2023/01/13 13:59:03;;;;;;;4.60;2.25;;;;;;;1.05;100.00;100060.78;10440336;28;20045;-78
2023/01/13 14:04:15;;;;;;;3.58;2.42;;;;;;;1.05;100.00;100063.47;10443772;28;20048;-78
2023/01/13 14:09:18;;;;;;;9.73;3.97;;;;;;;1.07;100.00;100061.34;10443509;28;20046;-77
2023/01/13 14:14:21;;;;;;;7.20;3.53;;;;;;;1.07;100.00;100061.34;10444297;28;20041;-75
2023/01/13 14:19:29;;;;;;;9.50;4.60;;;;;;;1.07;100.00;100058.66;10433353;28;20045;-77
2023/01/13 14:24:31;;;;;;;6.13;2.83;;;;;;;1.06;100.00;100065.94;10439319;28;20041;-76
2023/01/13 14:29:34;;;;;;;8.30;3.78;;;;;;;1.06;100.00;100063.25;10441045;28;20041;-78
2023/01/13 14:34:37;;;;;;;7.18;3.58;;;;;;;1.05;100.00;100069.69;10438965;28;20056;-74
2023/01/13 14:39:40;;;;;;;5.72;3.15;;;;;;;1.06;100.00;100073.22;10454958;28;20046;-75
2023/01/13 14:44:53;;;;;;;5.68;2.50;;;;;;;1.06;100.00;100070.53;10441217;28;20037;-77
2023/01/13 14:50:03;;;;;;;8.05;4.10;;;;;;;1.06;100.00;100084.84;10441259;28;20053;-79
2023/01/13 14:55:08;;;;;;;7.40;3.83;;;;;;;1.05;100.00;100090.50;10381581;28;20055;-75
2023/01/13 15:00:14;;;;;;;5.28;2.83;;;;;;;1.02;100.00;100088.22;10436083;28;20052;-76
2023/01/13 15:05:16;;;;;;;5.60;3.10;;;;;;;0.99;100.00;100094.09;10439988;28;20046;-76
2023/01/13 15:10:26;;;;;;;3.50;2.00;;;;;;;0.95;100.00;100091.03;10434324;28;20057;-76
2023/01/13 15:15:34;;;;;;;8.63;3.70;;;;;;;0.93;100.00;100095.84;10438810;28;20056;-79
2023/01/13 15:20:38;;;;;;;4.80;3.40;;;;;;;0.94;100.00;100099.38;10419273;28;20040;-76
2023/01/13 15:25:42;;;;;;;3.70;2.67;;;;;;;0.91;100.00;100103.38;10440385;28;20041;-74
2023/01/13 15:30:45;;;;;;;7.82;3.63;;;;;;;0.90;100.00;100099.03;10439676;28;20044;-79
2023/01/13 15:35:52;;;;;;;5.32;2.88;;;;;;;0.89;100.00;100100.91;10427926;28;20037;-79
2023/01/13 15:40:58;;;;;;;4.72;2.53;;;;;;;0.88;100.00;100103.84;10432002;28;20054;-78
2023/01/13 15:46:36;;;;;;;8.80;3.03;;;;;;;0.88;100.00;100098.44;10434819;28;20444;-77
2023/01/13 15:51:39;;;;;;;6.45;3.10;;;;;;;0.86;100.00;100108.63;10428060;28;20091;-74
2023/01/13 15:57:30;;;;;;;2.63;1.53;;;;;;;0.85;100.00;100105.09;10448089;28;20049;-75
2023/01/13 16:02:33;;;;;;;6.85;3.88;;;;;;;0.83;100.00;100112.59;10438469;28;20049;-74
2023/01/13 16:07:39;;;;;;;4.45;2.85;;;;;;;0.83;100.00;100107.22;10419673;28;20041;-73
2023/01/13 16:12:41;;;;;;;11.02;4.00;;;;;;;0.82;100.00;100105.56;10414690;28;20053;-73
2023/01/13 16:18:10;;;;;;;6.18;3.58;;;;;;;0.78;100.00;100114.38;10439926;28;20060;-72
2023/01/13 16:23:12;;;;;;;4.57;3.22;;;;;;;0.77;100.00;100113.53;10417660;28;20037;-76
2023/01/13 16:28:24;;;;;;;6.32;3.90;;;;;;;0.75;100.00;100110.25;10444134;28;20060;-74
2023/01/13 16:33:26;;;;;;;5.25;2.75;;;;;;;0.73;100.00;100115.06;10423968;28;20037;-73
2023/01/13 16:38:29;;;;;;;5.88;3.45;;;;;;;0.69;100.00;100108.44;10441418;28;20038;-79
2023/01/13 16:43:31;;;;;;;6.30;3.92;;;;;;;0.66;100.00;100113.50;10426963;28;20049;-74
2023/01/13 16:48:34;;;;;;;1.45;1.30;;;;;;;0.62;100.00;100110.44;10443447;28;20040;-75
2023/01/13 16:53:36;;;;;;;3.83;2.05;;;;;;;0.59;100.00;100110.91;10428137;28;20037;-79
2023/01/13 16:58:39;;;;;;;7.35;2.67;;;;;;;0.57;100.00;100102.19;10444386;28;20048;-76
2023/01/13 17:03:41;;;;;;;5.65;3.47;;;;;;;0.55;100.00;100105.13;10435361;28;20042;-74
2023/01/13 17:08:43;;;;;;;3.13;2.13;;;;;;;0.52;100.00;100113.69;10437696;28;20042;-75
2023/01/13 17:13:45;;;;;;;5.32;3.13;;;;;;;0.49;100.00;100122.22;10447362;28;20044;-75
2023/01/13 17:18:52;;;;;;;2.92;2.47;;;;;;;0.50;100.00;100117.66;10439762;28;20049;-73
2023/01/13 17:23:55;;;;;;;4.75;2.05;;;;;;;0.49;100.00;100089.00;10432942;28;20045;-74
2023/01/13 17:29:00;;;;;;;2.15;1.63;;;;;;;0.48;100.00;100095.47;10435314;28;20053;-75
2023/01/13 17:34:03;;;;;;;5.47;2.75;;;;;;;0.46;100.00;100100.28;10424445;28;20034;-74
2023/01/13 17:39:05;;;;;;;5.40;3.00;;;;;;;0.41;100.00;100094.75;10433369;28;20044;-73
2023/01/13 17:44:11;;;;;;;6.20;3.30;;;;;;;0.34;100.00;100105.59;10452628;28;20071;-74
2023/01/13 17:49:18;;;;;;;3.97;2.97;;;;;;;0.33;100.00;100105.84;10428258;28;20069;-74
2023/01/13 17:54:20;;;;;;;5.00;2.58;;;;;;;0.29;100.00;100100.06;10429109;28;20052;-73
2023/01/13 17:59:26;;;;;;;2.75;2.47;;;;;;;0.26;100.00;100105.94;10440210;28;20037;-73
2023/01/13 18:04:29;;;;;;;6.45;2.63;;;;;;;0.27;100.00;100091.38;10423075;28;20033;-74
2023/01/13 18:09:32;;;;;;;4.07;2.40;;;;;;;0.25;100.00;100088.09;10415700;28;20045;-76
2023/01/13 18:14:34;;;;;;;3.53;2.58;;;;;;;0.23;100.00;100101.81;10442226;28;20531;-76
2023/01/13 18:30:19;;;;;;;4.32;2.10;;;;;;;0.19;100.00;100094.41;10432562;28;20428;-74
2023/01/13 18:35:22;;;;;;;3.70;2.22;;;;;;;0.16;100.00;100102.94;10429943;28;20029;-74
2023/01/13 18:40:25;;;;;;;3.97;2.28;;;;;;;0.12;100.00;100099.03;10408927;28;20053;-73
2023/01/13 18:45:31;;;;;;;1.42;1.33;;;;;;;0.09;100.00;100105.72;10434416;28;20053;-76
2023/01/13 18:50:38;;;;;;;3.55;2.47;;;;;;;0.04;100.00;100116.38;10430849;28;20053;-76
2023/01/13 18:55:44;;;;;;;2.33;1.83;;;;;;;-0.01;100.00;100110.78;10439993;28;20063;-75
2023/01/13 19:00:59;;;;;;;2.83;2.00;;;;;;;-0.02;100.00;100109.16;10425221;28;20129;-76
2023/01/13 19:06:03;;;;;;;3.20;2.25;;;;;;;-0.05;100.00;100106.91;10409085;28;20049;-76
2023/01/13 19:11:15;;;;;;;3.60;2.33;;;;;;;-0.06;100.00;100118.75;10443844;28;20149;-76
2023/01/13 19:16:20;;;;;;;2.00;1.80;;;;;;;-0.08;100.00;100110.06;10423261;28;20042;-75
2023/01/13 19:21:22;;;;;;;2.95;2.00;;;;;;;-0.06;100.00;100110.66;10443572;28;20042;-77
2023/01/13 19:26:26;;;;;;;3.92;1.70;;;;;;;-0.07;100.00;100109.00;10417251;28;20041;-77
2023/01/13 19:31:28;;;;;;;3.50;1.45;;;;;;;-0.05;100.00;100105.03;10431593;28;20053;-76
2023/01/13 19:36:30;;;;;;;2.75;1.60;;;;;;;-0.03;100.00;100105.63;10443448;28;20508;-76
2023/01/13 19:46:55;;;;;;;2.47;1.55;;;;;;;-0.01;100.00;100105.41;10417539;28;20044;-78
2023/01/13 19:51:57;;;;;;;1.60;1.20;;;;;;;-0.02;100.00;100109.16;10423291;28;20038;-76
2023/01/13 19:57:00;;;;;;;2.00;1.50;;;;;;;-0.01;100.00;100110.78;10431452;28;20037;-78
2023/01/13 20:02:03;;;;;;;1.95;1.15;;;;;;;0.05;100.00;100114.50;10441496;28;20416;-79
2023/01/13 20:07:06;;;;;;;2.22;1.40;;;;;;;0.09;100.00;100123.78;10440953;28;20057;-76
2023/01/13 20:12:12;;;;;;;2.72;1.73;;;;;;;0.12;100.00;100116.03;10414349;28;20605;-74
2023/01/13 20:17:17;;;;;;;4.28;1.60;;;;;;;0.16;100.00;100124.50;10439488;28;20045;-74
2023/01/13 20:22:20;;;;;;;2.85;1.20;;;;;;;0.19;100.00;100124.91;10449075;28;20034;-75
2023/01/13 20:27:22;;;;;;;1.77;1.15;;;;;;;0.19;100.00;100127.59;10435639;28;20144;-74
2023/01/13 20:32:25;;;;;;;2.28;1.90;;;;;;;0.19;100.00;100126.78;10447384;28;20042;-77
2023/01/13 20:37:28;;;;;;;2.63;1.88;;;;;;;0.19;100.00;100116.00;10438334;28;20045;-77
2023/01/13 20:42:43;;;;;;;1.63;1.52;;;;;;;0.21;100.00;100116.59;10456330;28;20060;-76
2023/01/13 20:47:45;;;;;;;0.82;0.82;;;;;;;0.22;100.00;100120.94;10447568;28;20046;-74
2023/01/13 20:52:48;;;;;;;2.47;1.80;;;;;;;0.25;100.00;100118.59;10440223;28;20056;-75
2023/01/13 20:57:50;;;;;;;2.08;1.45;;;;;;;0.28;100.00;100109.22;10429770;28;20045;-75
2023/01/13 21:02:53;;;;;;;2.65;2.17;;;;;;;0.28;100.00;100104.66;10443962;28;20536;-79
2023/01/13 21:07:55;;;;;;;0.82;0.73;;;;;;;0.30;100.00;100112.50;10439928;28;20037;-76
2023/01/13 21:23:41;;;;;;;4.57;2.30;;;;;;;0.30;100.00;100113.34;10422228;28;20052;-80
2023/01/13 21:28:43;;;;;;;3.67;2.55;;;;;;;0.35;100.00;100119.91;10432752;28;20050;-78
2023/01/13 21:33:47;;;;;;;2.60;2.38;;;;;;;0.33;100.00;100124.72;10423454;28;20064;-76
2023/01/13 21:38:53;;;;;;;2.83;2.53;;;;;;;0.34;100.00;100124.50;10429110;28;20038;-77
2023/01/13 21:49:17;;;;;;;3.03;2.33;;;;;;;0.36;100.00;100127.00;10383952;28;20057;-75
2023/01/13 21:54:19;;;;;;;3.83;2.35;;;;;;;0.39;100.00;100127.34;10351211;28;20038;-77
2023/01/13 21:59:21;;;;;;;3.38;2.50;;;;;;;0.42;100.00;100131.47;10401166;28;20068;-78
2023/01/13 22:04:23;;;;;;;3.83;2.55;;;;;;;0.42;100.00;100131.47;10404480;28;20048;-76
2023/01/13 22:09:25;;;;;;;4.97;3.00;;;;;;;0.44;100.00;100129.38;10405613;28;20389;-77
2023/01/13 22:14:27;;;;;;;2.80;2.05;;;;;;;0.46;100.00;100129.97;10402916;28;20050;-76
2023/01/13 22:19:35;;;;;;;4.60;2.72;;;;;;;0.47;100.00;100140.53;10339804;28;20456;-75
2023/01/13 22:24:42;;;;;;;5.18;3.10;;;;;;;0.48;100.00;100133.25;10379860;28;20038;-76
2023/01/13 22:29:45;;;;;;;4.30;2.78;;;;;;;0.48;100.00;100136.78;10382796;28;20096;-78
2023/01/13 22:34:47;;;;;;;3.88;2.70;;;;;;;0.49;100.00;100138.41;10391106;28;20057;-77
2023/01/13 22:39:49;;;;;;;3.95;2.60;;;;;;;0.49;100.00;100143.81;10401614;28;20044;-77
2023/01/13 22:44:51;;;;;;;3.70;2.95;;;;;;;0.49;100.00;100143.81;10400915;28;20061;-77
2023/01/13 22:49:54;;;;;;;6.85;3.03;;;;;;;0.52;100.00;100142.53;10422698;28;20048;-76
2023/01/13 22:54:57;;;;;;;4.43;3.10;;;;;;;0.54;100.00;100156.66;10439854;28;20049;-76
2023/01/13 23:00:00;;;;;;;4.20;2.58;;;;;;;0.56;100.00;100159.94;10442224;28;20053;-81
2023/01/13 23:05:02;;;;;;;5.25;2.67;;;;;;;0.59;100.00;100159.50;10416010;28;20042;-80
2023/01/13 23:10:05;;;;;;;3.90;2.88;;;;;;;0.62;100.00;100163.59;10436780;28;20048;-78
2023/01/13 23:15:08;;;;;;;3.33;2.42;;;;;;;0.61;100.00;100168.19;10461784;28;20132;-80
2023/01/13 23:20:10;;;;;;;3.78;2.28;;;;;;;0.63;100.00;100166.06;10440602;28;20036;-78
2023/01/13 23:25:12;;;;;;;2.72;1.90;;;;;;;0.67;100.00;100178.06;10435202;28;20120;-78
2023/01/13 23:30:15;;;;;;;3.25;2.42;;;;;;;0.76;100.00;100184.81;10412118;28;20143;-77
2023/01/13 23:35:17;;;;;;;3.63;2.10;;;;;;;0.78;100.00;100174.59;10397189;28;20066;-77
2023/01/13 23:40:19;;;;;;;2.70;1.80;;;;;;;0.81;100.00;100187.63;10448041;28;20531;-78
2023/01/13 23:45:21;;;;;;;2.50;1.65;;;;;;;0.84;100.00;100197.16;10420099;28;20546;-78
2023/01/13 23:50:23;;;;;;;2.90;1.85;;;;;;;0.87;100.00;100194.84;10443714;28;20064;-77
2023/01/13 23:55:26;;;;;;;1.80;1.50;;;;;;;0.90;100.00;100199.78;10419851;28;20045;-79
